Time;durP1;ratioP1;P1;durP2;ratioP2;P2;SDS_P1;SDS_P2;PMS_P1;PMS_P2;Temp;Humidity;BMP_temperature;BMP_pressure;BME280_temperature;BME280_humidity;BME280_pressure;Samples;Min_cycle;Max_cycle;Signal;HPM_P1;HPM_P2
2023/03/13 00:00:11;;;;;;;1.85;0.80;;;;;;;-3.07;66.72;98412.25;5040129;28;20440;-49
2023/03/13 00:02:36;;;;;;;1.42;0.90;;;;;;;-3.07;66.95;98410.50;5033583;28;20057;-54
2023/03/13 00:05:02;;;;;;;1.52;0.77;;;;;;;-3.05;67.09;98415.63;5032148;28;20119;-49
2023/03/13 00:07:28;;;;;;;1.85;0.90;;;;;;;-3.06;66.69;98422.66;5045247;28;20475;-49
2023/03/13 00:09:53;;;;;;;2.30;0.77;;;;;;;-3.25;66.29;98393.91;5051881;28;20033;-48
2023/03/13 00:12:19;;;;;;;1.35;0.93;;;;;;;-3.03;66.47;98424.28;5051303;28;20029;-49
2023/03/13 00:14:44;;;;;;;1.45;0.77;;;;;;;-3.14;66.33;98416.91;5052259;28;20033;-49
2023/03/13 00:17:10;;;;;;;2.75;0.95;;;;;;;-3.17;66.51;98433.66;5051839;28;20466;-53
2023/03/13 00:19:35;;;;;;;1.35;1.15;;;;;;;-3.43;66.05;98402.59;5051608;28;20455;-48
2023/03/13 00:22:00;;;;;;;1.63;1.10;;;;;;;-3.26;66.58;98447.13;5050656;28;20044;-60
2023/03/13 00:24:26;;;;;;;3.38;0.80;;;;;;;-3.33;66.99;98436.13;5048563;28;20483;-49
2023/03/13 00:26:51;;;;;;;1.95;0.93;;;;;;;-3.26;67.13;98451.53;5039663;28;20040;-50
2023/03/13 00:29:17;;;;;;;1.15;0.60;;;;;;;-3.32;66.87;98443.06;5051537;28;20044;-48
2023/03/13 00:31:42;;;;;;;1.40;0.80;;;;;;;-3.38;66.80;98440.69;5052151;28;20033;-51
2023/03/13 00:34:08;;;;;;;1.67;0.98;;;;;;;-3.47;67.11;98452.47;5034559;28;20435;-50
2023/03/13 00:36:34;;;;;;;1.98;0.95;;;;;;;-3.49;66.96;98456.06;5051194;28;20045;-52
2023/03/13 00:39:00;;;;;;;0.98;0.73;;;;;;;-3.58;67.18;98465.16;5051908;28;20029;-49
2023/03/13 00:41:29;;;;;;;0.68;0.50;;;;;;;-3.59;67.39;98462.63;5050376;28;20470;-51
2023/03/13 00:43:55;;;;;;;0.85;0.70;;;;;;;-3.59;66.98;98478.34;5053077;28;20426;-51
2023/03/13 00:46:23;;;;;;;1.48;0.80;;;;;;;-3.61;67.28;98479.25;5051468;28;20033;-52
2023/03/13 00:48:49;;;;;;;1.50;0.70;;;;;;;-3.53;67.52;98478.88;5035169;28;20065;-49
2023/03/13 00:51:16;;;;;;;1.08;0.60;;;;;;;-3.39;66.38;98483.50;5054386;28;20041;-52
2023/03/13 00:53:42;;;;;;;0.85;0.60;;;;;;;-3.75;66.82;98431.91;5055697;28;20106;-50
2023/03/13 00:56:10;;;;;;;1.75;0.52;;;;;;;-3.35;66.82;98489.44;5054884;28;20045;-49
2023/03/13 00:58:38;;;;;;;1.83;0.98;;;;;;;-3.28;67.15;98492.66;5054752;28;20127;-52
2023/03/13 01:01:09;;;;;;;0.57;0.50;;;;;;;-3.27;66.33;98494.34;5054887;28;20044;-50
2023/03/13 01:03:36;;;;;;;2.35;0.88;;;;;;;-3.21;66.04;98504.53;5054805;28;20071;-51
2023/03/13 01:06:04;;;;;;;1.42;0.75;;;;;;;-3.30;66.44;98502.34;5054346;28;20048;-54
2023/03/13 01:08:30;;;;;;;1.20;0.70;;;;;;;-3.29;65.99;98504.03;5035149;28;20452;-48
2023/03/13 01:11:23;;;;;;;0.82;0.55;;;;;;;-3.23;66.33;98514.22;5035054;28;20470;-50
2023/03/13 01:13:49;;;;;;;1.23;0.60;;;;;;;-3.33;66.48;98519.88;5034633;28;20404;-49
2023/03/13 01:16:20;;;;;;;1.08;0.80;;;;;;;-3.33;66.26;98525.13;5036464;28;20116;-49
2023/03/13 01:18:48;;;;;;;1.33;0.80;;;;;;;-3.42;66.76;98530.75;5054235;28;20410;-49
2023/03/13 01:21:14;;;;;;;1.30;0.70;;;;;;;-3.59;66.16;98530.66;5054774;28;20097;-52
2023/03/13 01:23:40;;;;;;;1.08;0.70;;;;;;;-3.63;66.68;98537.78;5053679;28;20110;-48
2023/03/13 01:26:07;;;;;;;0.77;0.73;;;;;;;-3.93;66.88;98520.72;5054173;28;20423;-52
2023/03/13 01:28:34;;;;;;;1.95;0.80;;;;;;;-3.82;67.39;98556.03;5034971;28;20052;-51
2023/03/13 01:31:08;;;;;;;2.83;0.95;;;;;;;-3.86;67.14;98559.66;5034842;28;20527;-54
2023/03/13 01:33:34;;;;;;;1.23;0.80;;;;;;;-3.96;66.75;98562.69;5038776;28;20099;-49
2023/03/13 01:36:01;;;;;;;1.13;0.80;;;;;;;-4.08;67.32;98578.88;5054333;28;20033;-53
2023/03/13 01:38:26;;;;;;;1.92;1.08;;;;;;;-4.20;67.95;98581.06;5034025;28;20108;-48
2023/03/13 01:40:52;;;;;;;1.98;0.93;;;;;;;-4.48;67.57;98514.25;5034799;28;20579;-52
2023/03/13 01:43:27;;;;;;;2.60;0.95;;;;;;;-4.19;67.90;98592.38;5034654;28;20397;-50
2023/03/13 01:46:17;;;;;;;2.15;0.70;;;;;;;-4.29;67.89;98591.91;5034094;28;20104;-50
2023/03/13 01:48:54;;;;;;;1.23;0.90;;;;;;;-4.37;68.34;98601.78;5038977;28;20091;-47
2023/03/13 01:51:28;;;;;;;1.58;0.80;;;;;;;-4.36;68.12;98611.31;5053702;28;20114;-51
2023/03/13 01:54:00;;;;;;;2.10;0.88;;;;;;;-4.39;68.82;98608.84;5054163;28;20037;-49
2023/03/13 01:56:36;;;;;;;1.17;0.80;;;;;;;-4.39;68.82;98624.50;5049325;28;20036;-50
2023/03/13 01:59:05;;;;;;;2.30;0.85;;;;;;;-4.48;69.03;98610.91;5046883;28;20082;-49
2023/03/13 02:01:30;;;;;;;2.17;0.98;;;;;;;-4.49;68.24;98618.78;5053307;28;20751;-50
2023/03/13 02:03:57;;;;;;;1.10;0.88;;;;;;;-4.52;68.34;98626.75;5053920;28;20590;-49
2023/03/13 02:06:27;;;;;;;2.10;0.98;;;;;;;-4.56;68.40;98626.03;5053970;28;20029;-49
2023/03/13 02:08:57;;;;;;;1.15;0.73;;;;;;;-4.60;68.45;98632.25;5043790;28;20029;-53
2023/03/13 02:11:34;;;;;;;1.42;1.02;;;;;;;-4.59;69.25;98647.03;5034220;28;20057;-51
2023/03/13 02:14:02;;;;;;;2.83;0.80;;;;;;;-4.62;69.34;98647.13;5034043;28;20025;-51
2023/03/13 02:16:28;;;;;;;2.15;0.93;;;;;;;-4.70;69.07;98659.66;5034842;28;20510;-49
2023/03/13 02:18:53;;;;;;;1.42;1.05;;;;;;;-4.71;69.18;98652.72;5035437;28;20088;-50
2023/03/13 02:21:42;;;;;;;2.95;1.05;;;;;;;-4.81;68.94;98642.63;5052598;28;20127;-48
2023/03/13 02:24:31;;;;;;;2.15;1.15;;;;;;;-4.71;68.92;98673.63;5053483;28;20029;-60
2023/03/13 02:26:56;;;;;;;1.00;0.90;;;;;;;-4.78;69.60;98675.59;5053913;28;20029;-51
2023/03/13 02:29:23;;;;;;;2.33;1.20;;;;;;;-4.84;69.09;98674.03;5040327;28;20029;-48
2023/03/13 02:31:49;;;;;;;4.55;0.95;;;;;;;-4.86;69.58;98683.69;5033540;28;20452;-51
2023/03/13 02:34:21;;;;;;;1.50;0.93;;;;;;;-4.91;69.71;98683.88;5033307;28;20032;-50
2023/03/13 02:36:47;;;;;;;3.65;1.30;;;;;;;-4.93;69.90;98677.00;5032582;28;20021;-49
2023/03/13 02:39:17;;;;;;;3.35;1.38;;;;;;;-4.93;69.67;98688.31;5045192;28;20535;-51
2023/03/13 02:41:45;;;;;;;1.52;1.10;;;;;;;-5.00;69.72;98693.78;5052521;28;20049;-52
2023/03/13 02:44:11;;;;;;;1.42;1.20;;;;;;;-5.00;69.46;98699.84;5052868;28;20041;-49
2023/03/13 02:46:49;;;;;;;2.95;1.00;;;;;;;-4.97;70.15;98699.75;5053658;28;20094;-50
2023/03/13 02:49:28;;;;;;;1.73;1.23;;;;;;;-4.98;69.82;98718.09;5041424;28;20120;-51
2023/03/13 02:51:57;;;;;;;1.67;0.90;;;;;;;-5.08;69.70;98712.31;5040625;28;20037;-51
2023/03/13 02:54:36;;;;;;;1.63;1.05;;;;;;;-5.24;69.45;98693.75;5053054;28;20071;-49
2023/03/13 02:57:03;;;;;;;2.20;1.15;;;;;;;-5.09;70.08;98724.50;5052734;28;20056;-53
2023/03/13 02:59:29;;;;;;;3.25;1.30;;;;;;;-5.14;70.00;98733.44;5039939;28;20071;-52
2023/03/13 03:01:54;;;;;;;3.08;0.90;;;;;;;-5.22;69.73;98723.25;5032963;28;20334;-51
2023/03/13 03:04:24;;;;;;;2.03;1.10;;;;;;;-5.14;69.92;98734.25;5032621;28;20494;-52
2023/03/13 03:06:51;;;;;;;1.67;1.20;;;;;;;-5.19;69.45;98733.56;5032562;28;20052;-50
2023/03/13 03:09:18;;;;;;;2.63;1.30;;;;;;;-5.21;70.00;98738.00;5043080;28;20028;-49
2023/03/13 03:11:44;;;;;;;2.33;1.52;;;;;;;-5.19;70.24;98741.41;5052643;28;20037;-50
2023/03/13 03:14:11;;;;;;;2.35;1.20;;;;;;;-5.35;69.91;98720.19;5053104;28;20052;-49
2023/03/13 03:16:37;;;;;;;3.28;1.50;;;;;;;-5.21;70.16;98754.50;5039058;28;20090;-51
2023/03/13 03:19:03;;;;;;;1.33;1.00;;;;;;;-5.21;69.93;98762.31;5038860;28;20104;-54
2023/03/13 03:21:29;;;;;;;4.45;1.40;;;;;;;-5.22;70.10;98757.16;5052819;28;20522;-50
2023/03/13 03:23:55;;;;;;;1.55;1.10;;;;;;;-5.15;70.07;98763.88;5052360;28;20075;-50
2023/03/13 03:26:20;;;;;;;4.10;1.02;;;;;;;-5.16;69.81;98772.63;5052394;28;20458;-49
2023/03/13 03:28:46;;;;;;;2.75;1.42;;;;;;;-5.17;70.18;98770.06;5046660;28;20107;-49
2023/03/13 03:31:13;;;;;;;2.35;0.95;;;;;;;-5.21;69.68;98779.75;5032512;28;20029;-62
2023/03/13 03:33:39;;;;;;;2.55;1.10;;;;;;;-5.25;69.58;98784.19;5032520;28;20037;-49
2023/03/13 03:36:16;;;;;;;3.70;1.27;;;;;;;-5.23;69.70;98790.22;5032650;28;20338;-52
2023/03/13 03:38:42;;;;;;;4.13;1.23;;;;;;;-5.24;69.82;98792.91;5037898;28;20033;-58
2023/03/13 03:41:10;;;;;;;2.22;1.13;;;;;;;-5.23;69.83;98786.78;5052383;28;20048;-49
2023/03/13 03:43:36;;;;;;;1.85;1.13;;;;;;;-5.20;69.98;98789.28;5052541;28;20041;-49
2023/03/13 03:46:01;;;;;;;2.90;1.40;;;;;;;-5.17;70.03;98802.22;5052585;28;20132;-54
2023/03/13 03:48:27;;;;;;;2.67;1.20;;;;;;;-5.19;69.81;98798.81;5049539;28;20045;-51
2023/03/13 03:50:53;;;;;;;3.38;1.50;;;;;;;-5.22;69.49;98794.53;5032188;28;20528;-49
2023/03/13 03:53:18;;;;;;;3.70;1.33;;;;;;;-5.12;69.55;98805.53;5032398;28;20076;-49
2023/03/13 03:55:44;;;;;;;2.03;1.20;;;;;;;-5.11;69.02;98804.63;5032844;28;20475;-51
2023/03/13 03:58:09;;;;;;;3.50;1.05;;;;;;;-5.10;68.84;98819.38;5032130;28;20038;-58
2023/03/13 04:00:35;;;;;;;2.85;1.60;;;;;;;-5.08;68.65;98820.19;5050860;28;20060;-50
2023/03/13 04:03:00;;;;;;;2.35;1.27;;;;;;;-5.05;68.87;98822.72;5052605;28;20033;-55
2023/03/13 04:05:26;;;;;;;5.50;1.20;;;;;;;-5.08;68.56;98816.72;5032965;28;20036;-53
2023/03/13 04:07:51;;;;;;;2.75;1.30;;;;;;;-5.19;68.55;98797.03;5032101;28;20033;-50
2023/03/13 04:10:17;;;;;;;2.63;1.25;;;;;;;-4.98;68.37;98838.16;5048329;28;20041;-49
2023/03/13 04:12:42;;;;;;;2.47;1.40;;;;;;;-4.96;68.23;98828.53;5052382;28;20025;-48
2023/03/13 04:15:09;;;;;;;2.55;1.38;;;;;;;-4.99;67.98;98826.03;5052255;28;20036;-50
2023/03/13 04:17:34;;;;;;;2.50;1.17;;;;;;;-4.85;68.02;98839.44;5052417;28;20324;-53
2023/03/13 04:20:00;;;;;;;3.30;1.80;;;;;;;-4.80;68.29;98840.19;5055352;28;20033;-54
2023/03/13 04:22:27;;;;;;;2.80;1.50;;;;;;;-4.71;67.93;98853.81;5056752;28;20028;-51
2023/03/13 04:24:52;;;;;;;2.17;1.20;;;;;;;-4.69;67.14;98850.25;5056941;28;20044;-53
2023/03/13 04:27:18;;;;;;;1.77;1.15;;;;;;;-4.87;67.01;98828.22;5056537;28;20114;-49
2023/03/13 04:29:45;;;;;;;2.08;1.33;;;;;;;-4.58;67.46;98862.97;5042452;28;20194;-64
2023/03/13 04:32:10;;;;;;;3.17;1.40;;;;;;;-4.48;67.51;98858.25;5035288;28;20038;-49
2023/03/13 04:34:36;;;;;;;3.22;1.48;;;;;;;-3.33;66.65;98869.75;5036145;28;20135;-52
2023/03/13 04:37:01;;;;;;;3.13;1.92;;;;;;;-0.82;60.81;98871.06;5034734;28;20029;-50
2023/03/13 04:39:27;;;;;;;4.50;0.98;;;;;;;1.27;55.36;98856.53;5045087;28;20094;-54
2023/03/13 04:41:54;;;;;;;2.15;1.35;;;;;;;3.18;50.98;98875.75;5055710;28;20052;-49
2023/03/13 04:44:20;;;;;;;2.28;1.15;;;;;;;4.57;47.79;98876.06;5055421;28;20044;-49
2023/03/13 04:46:46;;;;;;;6.00;0.90;;;;;;;5.05;45.64;98881.53;5053884;28;20029;-59
2023/03/13 04:49:13;;;;;;;1.92;0.90;;;;;;;4.22;46.09;98871.47;5046391;28;20367;-50
2023/03/13 04:51:39;;;;;;;2.35;1.02;;;;;;;3.05;48.37;98890.69;5034114;28;20079;-50
2023/03/13 04:54:05;;;;;;;1.92;1.05;;;;;;;2.17;49.59;98904.94;5043867;28;20048;-49
2023/03/13 04:56:31;;;;;;;2.00;1.42;;;;;;;3.17;49.52;98895.22;5055150;28;20036;-52
2023/03/13 04:58:56;;;;;;;2.75;1.50;;;;;;;5.30;44.61;98899.19;5046997;28;20037;-49
2023/03/13 05:01:22;;;;;;;3.05;1.20;;;;;;;7.23;41.71;98900.38;5035233;28;20065;-55
2023/03/13 05:03:47;;;;;;;1.77;1.00;;;;;;;8.80;38.64;98905.91;5034909;28;20021;-56
2023/03/13 05:06:12;;;;;;;4.25;1.30;;;;;;;9.80;36.91;98908.59;5035110;28;20196;-51
2023/03/13 05:08:38;;;;;;;2.42;1.20;;;;;;;10.68;35.77;98913.78;5038863;28;20033;-49
2023/03/13 05:11:04;;;;;;;1.90;1.30;;;;;;;11.68;34.19;98917.56;5054934;28;20123;-50
2023/03/13 05:13:30;;;;;;;2.95;1.30;;;;;;;12.61;32.65;98918.94;5054783;28;20069;-51
2023/03/13 05:15:55;;;;;;;2.17;1.38;;;;;;;13.47;31.76;98919.78;5054073;28;20407;-49
2023/03/13 05:18:21;;;;;;;2.85;1.20;;;;;;;14.28;30.29;98926.38;5050137;28;20100;-50
2023/03/13 05:20:47;;;;;;;2.50;1.70;;;;;;;15.00;29.50;98930.09;5034124;28;20029;-52
2023/03/13 05:23:12;;;;;;;1.73;1.42;;;;;;;15.40;30.06;98940.84;5035208;28;20372;-50
2023/03/13 05:25:38;;;;;;;2.60;1.90;;;;;;;15.28;29.70;98908.91;5034960;28;20041;-53
2023/03/13 05:28:03;;;;;;;3.00;1.45;;;;;;;15.79;29.99;98938.09;5034633;28;20106;-52
2023/03/13 05:30:29;;;;;;;3.42;1.40;;;;;;;16.05;27.97;98944.16;5053009;28;20486;-51
2023/03/13 05:32:54;;;;;;;1.77;1.25;;;;;;;16.50;26.57;98952.38;5054854;28;20036;-50
2023/03/13 05:35:20;;;;;;;2.53;1.40;;;;;;;17.30;24.67;98949.16;5054536;28;20039;-50
2023/03/13 05:37:46;;;;;;;1.52;1.20;;;;;;;18.06;23.08;98951.44;5037008;28;20116;-51
2023/03/13 05:40:12;;;;;;;2.00;1.13;;;;;;;18.54;22.29;98949.09;5036720;28;20067;-53
2023/03/13 05:42:39;;;;;;;2.88;1.38;;;;;;;18.35;21.22;98948.78;5034216;28;20143;-54
2023/03/13 05:45:05;;;;;;;2.30;1.20;;;;;;;17.79;21.60;98950.31;5051872;28;20040;-51
2023/03/13 05:47:30;;;;;;;2.20;1.50;;;;;;;17.55;22.73;98941.50;5054203;28;20451;-54
2023/03/13 05:49:56;;;;;;;2.22;1.60;;;;;;;18.56;21.21;98958.72;5039121;28;20034;-51
2023/03/13 05:52:22;;;;;;;2.22;1.27;;;;;;;19.70;19.76;98961.19;5034525;28;20037;-51
2023/03/13 05:54:47;;;;;;;3.72;1.63;;;;;;;20.76;18.10;98950.59;5037682;28;20029;-52
2023/03/13 05:57:12;;;;;;;3.00;1.50;;;;;;;21.76;17.01;98953.22;5053084;28;20041;-50
2023/03/13 05:59:38;;;;;;;3.05;1.42;;;;;;;22.40;16.08;98952.34;5040663;28;20033;-51
2023/03/13 06:02:03;;;;;;;3.00;1.55;;;;;;;22.84;15.70;98957.81;5035222;28;20183;-52
2023/03/13 06:04:29;;;;;;;2.55;1.33;;;;;;;23.77;14.38;98952.31;5033840;28;20045;-53
2023/03/13 06:06:54;;;;;;;3.17;1.50;;;;;;;24.35;14.41;98961.75;5034008;28;20036;-52
2023/03/13 06:09:20;;;;;;;2.83;1.30;;;;;;;24.58;13.97;98948.31;5046640;28;20045;-61
2023/03/13 06:11:45;;;;;;;1.77;1.60;;;;;;;24.55;13.62;98965.22;5054265;28;20057;-51
2023/03/13 06:14:11;;;;;;;1.75;1.40;;;;;;;24.83;13.00;98966.44;5053709;28;20044;-53
2023/03/13 06:16:36;;;;;;;1.73;1.45;;;;;;;25.55;12.56;98976.19;5053489;28;20065;-53
2023/03/13 06:19:02;;;;;;;3.10;1.50;;;;;;;26.27;12.69;98975.88;5052253;28;20040;-54
2023/03/13 06:21:28;;;;;;;2.40;1.33;;;;;;;27.02;11.95;98979.28;5053965;28;20094;-52
2023/03/13 06:23:54;;;;;;;5.22;1.40;;;;;;;27.56;11.66;98983.28;5051747;28;20101;-53
2023/03/13 06:26:20;;;;;;;9.45;2.10;;;;;;;28.17;10.25;98963.00;5053206;28;20443;-52
2023/03/13 06:28:47;;;;;;;3.97;1.50;;;;;;;28.84;10.36;98978.41;5046526;28;20037;-51
2023/03/13 06:31:12;;;;;;;3.42;2.03;;;;;;;29.47;10.40;98980.44;5033923;28;20094;-53
2023/03/13 06:33:38;;;;;;;2.63;1.83;;;;;;;30.03;9.60;98981.69;5040023;28;20104;-54
2023/03/13 06:36:04;;;;;;;4.55;2.17;;;;;;;29.83;9.73;98982.47;5035606;28;20123;-47
2023/03/13 06:38:30;;;;;;;5.20;2.22;;;;;;;29.75;9.55;98987.38;5048630;28;20030;-52
2023/03/13 06:40:55;;;;;;;4.47;2.20;;;;;;;29.36;9.96;98994.13;5032499;28;20045;-52
2023/03/13 06:43:21;;;;;;;3.00;2.20;;;;;;;29.18;9.36;99000.13;5032856;28;20055;-53
2023/03/13 06:45:47;;;;;;;3.55;2.42;;;;;;;28.62;9.66;99004.97;5033081;28;20440;-52
2023/03/13 06:48:12;;;;;;;2.88;2.28;;;;;;;27.71;10.17;99001.03;5032791;28;20037;-58
2023/03/13 06:50:39;;;;;;;3.20;2.17;;;;;;;27.06;10.06;99002.41;5035293;28;20060;-54
2023/03/13 06:53:04;;;;;;;2.47;2.15;;;;;;;27.01;10.42;99002.34;5049071;28;20367;-51
2023/03/13 06:55:30;;;;;;;4.18;2.47;;;;;;;27.88;9.96;99017.47;5033052;28;20029;-55
2023/03/13 06:57:55;;;;;;;4.68;1.75;;;;;;;28.33;9.21;98986.00;5033626;28;20036;-48
2023/03/13 07:00:21;;;;;;;4.63;1.65;;;;;;;28.43;8.89;98965.97;5048101;28;20047;-54
2023/03/13 07:02:47;;;;;;;1.80;1.67;;;;;;;28.70;8.98;99011.91;5050599;28;20033;-51
2023/03/13 07:05:13;;;;;;;2.95;1.67;;;;;;;29.07;8.74;99019.34;5050637;28;20135;-56
2023/03/13 07:07:40;;;;;;;2.75;1.98;;;;;;;29.55;8.67;99025.97;5052631;28;20058;-53
2023/03/13 07:10:06;;;;;;;4.55;2.42;;;;;;;29.26;8.83;99024.41;5050052;28;20040;-53
2023/03/13 07:12:33;;;;;;;2.60;2.08;;;;;;;27.51;9.78;99029.97;5046755;28;20033;-54
2023/03/13 07:14:59;;;;;;;4.32;2.13;;;;;;;25.18;10.85;99029.38;5043717;28;20032;-56
2023/03/13 07:17:25;;;;;;;5.25;2.80;;;;;;;22.43;12.39;99031.81;5034050;28;20032;-55
2023/03/13 07:19:50;;;;;;;4.10;2.08;;;;;;;19.75;14.32;99047.47;5032868;28;20041;-55
2023/03/13 07:22:16;;;;;;;2.92;1.92;;;;;;;17.76;15.99;99042.75;5035493;28;20051;-53
2023/03/13 07:24:41;;;;;;;2.92;2.15;;;;;;;16.91;17.17;99054.69;5050750;28;20035;-51
2023/03/13 07:27:07;;;;;;;5.53;2.30;;;;;;;16.26;17.79;99050.69;5039649;28;20045;-52
2023/03/13 07:29:32;;;;;;;6.72;2.50;;;;;;;16.27;17.76;99061.28;5032435;28;20076;-56
2023/03/13 07:31:58;;;;;;;3.30;1.83;;;;;;;16.95;17.12;99063.28;5031505;28;20475;-53
2023/03/13 07:34:23;;;;;;;4.40;2.30;;;;;;;16.53;17.45;99070.06;5048507;28;20375;-56
2023/03/13 07:36:48;;;;;;;6.68;2.20;;;;;;;15.45;18.81;99082.28;5050424;28;20082;-53
2023/03/13 07:39:14;;;;;;;6.78;2.15;;;;;;;14.11;19.92;99084.38;5032566;28;20044;-54
2023/03/13 07:41:41;;;;;;;4.20;2.10;;;;;;;12.75;21.32;99090.22;5041964;28;20052;-56
2023/03/13 07:44:06;;;;;;;6.10;1.88;;;;;;;11.69;22.58;99101.56;5052171;28;20033;-50
2023/03/13 07:46:31;;;;;;;3.92;2.13;;;;;;;10.88;23.70;99103.84;5051061;28;20075;-51
2023/03/13 07:48:57;;;;;;;6.07;2.22;;;;;;;10.14;25.06;99079.31;5039322;28;20460;-51
2023/03/13 07:51:24;;;;;;;3.15;1.70;;;;;;;9.56;25.63;99111.13;5036658;28;20165;-51
2023/03/13 07:53:50;;;;;;;5.80;2.25;;;;;;;8.67;26.49;99108.97;5053626;28;20025;-52
2023/03/13 07:56:21;;;;;;;3.20;1.95;;;;;;;8.11;27.73;99117.03;5053034;28;20041;-53
2023/03/13 07:58:47;;;;;;;6.70;1.95;;;;;;;7.59;28.54;99117.59;5055474;28;20370;-49
2023/03/13 08:01:18;;;;;;;5.53;1.85;;;;;;;7.49;28.53;99121.97;5055200;28;20108;-53
2023/03/13 08:03:45;;;;;;;4.60;2.40;;;;;;;7.67;28.64;99121.47;5052830;28;20043;-50
2023/03/13 08:06:13;;;;;;;5.50;2.15;;;;;;;7.99;28.29;99100.22;5047718;28;20359;-50
2023/03/13 08:08:39;;;;;;;5.65;1.58;;;;;;;7.94;27.70;99121.06;5055673;28;20112;-51
2023/03/13 08:11:08;;;;;;;3.75;1.85;;;;;;;7.41;28.47;99125.25;5045544;28;20091;-51
2023/03/13 08:13:34;;;;;;;5.75;1.58;;;;;;;6.99;29.71;99133.81;5049024;28;20040;-55
2023/03/13 08:16:07;;;;;;;8.85;2.08;;;;;;;6.93;29.88;99123.59;5053869;28;20447;-54
2023/03/13 08:18:34;;;;;;;2.83;1.75;;;;;;;6.91;30.25;99128.22;5037310;28;20321;-52
2023/03/13 08:21:08;;;;;;;3.92;1.83;;;;;;;7.14;29.73;99136.22;5037692;28;20044;-58
2023/03/13 08:23:35;;;;;;;3.63;1.83;;;;;;;6.88;30.33;99131.97;5052776;28;20447;-51
2023/03/13 08:26:11;;;;;;;2.95;1.70;;;;;;;6.78;30.85;99135.44;5055733;28;20039;-51
2023/03/13 08:28:37;;;;;;;5.88;1.90;;;;;;;6.53;30.76;99126.66;5038380;28;20531;-55
2023/03/13 08:31:27;;;;;;;4.07;1.67;;;;;;;6.52;31.45;99138.25;5034977;28;20455;-54
2023/03/13 08:33:52;;;;;;;8.27;1.83;;;;;;;6.13;31.88;99131.31;5035877;28;20412;-56
2023/03/13 08:36:26;;;;;;;6.85;1.88;;;;;;;5.80;32.72;99139.88;5035681;28;20125;-52
2023/03/13 08:38:53;;;;;;;4.80;2.03;;;;;;;5.53;33.97;99141.72;5035898;28;20061;-56
2023/03/13 08:41:22;;;;;;;5.53;1.65;;;;;;;5.69;33.57;99143.31;5035672;28;20053;-52
2023/03/13 08:43:48;;;;;;;6.93;1.83;;;;;;;5.86;33.71;99150.06;5035169;28;20029;-51
2023/03/13 08:46:14;;;;;;;6.78;2.10;;;;;;;5.97;33.41;99146.63;5035699;28;20072;-51
2023/03/13 08:48:40;;;;;;;5.43;1.90;;;;;;;5.82;33.61;99161.88;5055113;28;20045;-51
2023/03/13 08:51:09;;;;;;;7.85;1.92;;;;;;;5.78;34.56;99158.56;5051266;28;20031;-51
2023/03/13 08:53:36;;;;;;;3.45;1.60;;;;;;;5.95;33.97;99153.88;5050537;28;20037;-53
2023/03/13 08:56:03;;;;;;;3.30;1.92;;;;;;;6.12;34.05;99173.94;5034797;28;20091;-53
2023/03/13 08:58:29;;;;;;;7.47;2.13;;;;;;;6.25;33.50;99160.59;5035006;28;20028;-51
2023/03/13 09:01:04;;;;;;;9.57;3.00;;;;;;;6.50;33.56;99164.09;5040876;28;20096;-53
2023/03/13 09:03:31;;;;;;;8.13;1.40;;;;;;;6.34;33.20;99167.91;5052022;28;20486;-51
2023/03/13 09:05:57;;;;;;;3.42;1.30;;;;;;;6.11;34.22;99180.22;5054117;28;20055;-54
2023/03/13 09:08:23;;;;;;;8.35;1.75;;;;;;;5.77;34.87;99182.63;5055046;28;20039;-53
2023/03/13 09:11:04;;;;;;;4.60;1.30;;;;;;;5.59;35.16;99197.09;5041572;28;20029;-53
2023/03/13 09:13:31;;;;;;;4.32;1.63;;;;;;;5.27;35.77;99189.53;5042167;28;20025;-50
2023/03/13 09:15:59;;;;;;;7.80;1.58;;;;;;;5.13;36.48;99195.78;5038942;28;20040;-51
2023/03/13 09:18:25;;;;;;;6.03;1.75;;;;;;;4.97;37.24;99185.38;5047752;28;20056;-52
2023/03/13 09:20:50;;;;;;;5.07;1.20;;;;;;;4.84;36.52;99180.06;5033394;28;20411;-56
2023/03/13 09:23:16;;;;;;;5.22;1.42;;;;;;;4.68;38.08;99197.94;5041443;28;20045;-55
2023/03/13 09:25:42;;;;;;;3.70;1.73;;;;;;;4.59;37.49;99191.47;5045865;28;20075;-58
2023/03/13 09:28:07;;;;;;;3.13;1.17;;;;;;;4.47;38.17;99202.84;5040985;28;20424;-55
2023/03/13 09:30:32;;;;;;;2.53;1.17;;;;;;;4.26;37.69;99190.91;5053397;28;20460;-58
2023/03/13 09:32:58;;;;;;;2.95;1.50;;;;;;;4.07;39.33;99199.16;5054217;28;20048;-59
2023/03/13 09:35:23;;;;;;;6.40;1.88;;;;;;;4.08;40.17;99211.47;5038588;28;20036;-57
2023/03/13 09:37:49;;;;;;;3.13;1.58;;;;;;;4.38;39.31;99218.41;5039204;28;20033;-54
2023/03/13 09:40:17;;;;;;;6.47;1.63;;;;;;;4.54;39.39;99206.78;5054591;28;20061;-53
2023/03/13 09:43:00;;;;;;;3.00;1.77;;;;;;;4.58;39.71;99213.59;5054411;28;20075;-53
2023/03/13 09:45:32;;;;;;;11.73;2.10;;;;;;;4.64;39.68;99225.59;5053551;28;20064;-50
2023/03/13 09:48:27;;;;;;;5.18;1.40;;;;;;;4.85;38.92;99229.50;5053117;28;20158;-53
2023/03/13 09:51:03;;;;;;;3.13;1.38;;;;;;;4.71;39.85;99229.56;5053455;28;20334;-50
2023/03/13 09:53:40;;;;;;;3.30;1.40;;;;;;;4.70;40.58;99236.66;5051195;28;20028;-57
2023/03/13 09:56:19;;;;;;;4.22;1.60;;;;;;;4.63;40.77;99203.56;5053647;28;20036;-52
2023/03/13 09:59:01;;;;;;;3.80;1.60;;;;;;;5.04;39.87;99230.91;5047348;28;20033;-57
2023/03/13 10:01:30;;;;;;;2.72;1.70;;;;;;;5.03;39.69;99232.72;5042354;28;20037;-49
2023/03/13 10:04:13;;;;;;;3.85;1.90;;;;;;;4.82;39.84;99245.63;5039167;28;20047;-53
2023/03/13 10:06:42;;;;;;;3.63;1.80;;;;;;;4.48;40.69;99247.84;5033500;28;20408;-52
2023/03/13 10:09:16;;;;;;;2.22;1.60;;;;;;;4.15;41.70;99249.03;5034057;28;20029;-56
2023/03/13 10:11:55;;;;;;;4.18;1.60;;;;;;;3.68;41.68;99237.81;5016327;28;20418;-53
2023/03/13 10:14:52;;;;;;;3.95;2.00;;;;;;;3.32;42.32;99252.31;5033401;28;20379;-53
2023/03/13 10:17:39;;;;;;;3.67;2.28;;;;;;;2.96;43.27;99252.63;5040964;28;20045;-53
2023/03/13 10:20:25;;;;;;;6.85;2.63;;;;;;;2.70;44.18;99270.84;5053536;28;20116;-66
2023/03/13 10:23:05;;;;;;;4.15;2.38;;;;;;;2.41;45.43;99277.78;5046006;28;20083;-55
2023/03/13 10:25:33;;;;;;;3.92;1.90;;;;;;;2.26;46.34;99268.91;5033109;28;20415;-50
2023/03/13 10:27:59;;;;;;;6.90;2.80;;;;;;;2.20;46.71;99280.66;5033474;28;20515;-59
2023/03/13 10:30:29;;;;;;;5.57;2.58;;;;;;;2.12;47.55;99286.34;5033631;28;20049;-51
2023/03/13 10:33:19;;;;;;;5.35;1.98;;;;;;;2.15;46.74;99283.53;5037640;28;20065;-51
2023/03/13 10:35:44;;;;;;;6.90;1.98;;;;;;;1.92;48.01;99286.56;5036021;28;20064;-52
2023/03/13 10:38:11;;;;;;;4.32;2.03;;;;;;;1.90;48.81;99286.66;5047984;28;20024;-52
2023/03/13 10:40:37;;;;;;;2.90;1.90;;;;;;;1.94;48.72;99292.66;5033058;28;20033;-51
2023/03/13 10:43:18;;;;;;;2.88;1.83;;;;;;;1.72;49.44;99262.13;5033201;28;20050;-56
2023/03/13 10:45:43;;;;;;;5.45;1.92;;;;;;;1.69;49.73;99267.56;5032822;28;20104;-56
2023/03/13 10:48:24;;;;;;;3.10;1.98;;;;;;;1.86;49.81;99304.44;5038885;28;20025;-55
2023/03/13 10:50:52;;;;;;;6.15;1.73;;;;;;;1.58;50.74;99315.63;5052521;28;20029;-53
2023/03/13 10:53:29;;;;;;;3.67;2.08;;;;;;;1.38;52.30;99320.13;5052599;28;20037;-51
2023/03/13 10:56:18;;;;;;;4.60;2.20;;;;;;;1.32;52.77;99322.22;5052471;28;20462;-52
2023/03/13 10:58:47;;;;;;;3.17;1.90;;;;;;;1.14;54.82;99322.19;5051575;28;20060;-51
2023/03/13 11:01:41;;;;;;;4.35;2.17;;;;;;;1.21;54.24;99323.63;5048269;28;20387;-53
2023/03/13 11:04:48;;;;;;;4.55;2.05;;;;;;;1.33;54.25;99335.34;5041813;28;20036;-52
2023/03/13 11:07:36;;;;;;;3.95;2.00;;;;;;;1.56;54.66;99331.53;5031666;28;20098;-54
2023/03/13 11:10:24;;;;;;;4.82;2.33;;;;;;;1.92;54.19;99342.88;5032875;28;20034;-63
2023/03/13 11:12:51;;;;;;;5.20;2.35;;;;;;;2.47;52.48;99340.00;5038936;28;20083;-53
2023/03/13 11:15:47;;;;;;;6.45;2.22;;;;;;;2.63;50.05;99318.84;5041008;28;20398;-58
2023/03/13 11:18:35;;;;;;;5.95;2.90;;;;;;;3.00;49.42;99333.50;5042289;28;20028;-58
2023/03/13 11:21:03;;;;;;;3.47;2.05;;;;;;;3.11;46.92;99345.22;5043159;28;20039;-52
2023/03/13 11:23:31;;;;;;;2.90;1.85;;;;;;;3.07;47.41;99349.88;5041212;28;20036;-53
2023/03/13 11:26:21;;;;;;;8.60;4.20;;;;;;;3.16;47.13;99354.63;5036640;28;20044;-52
2023/03/13 11:29:09;;;;;;;5.05;1.55;;;;;;;3.12;46.26;99368.97;5045151;28;20033;-52
2023/03/13 11:31:41;;;;;;;4.70;1.58;;;;;;;3.01;45.84;99359.00;5052143;28;20039;-55
2023/03/13 11:34:39;;;;;;;3.97;1.75;;;;;;;3.03;46.63;99363.34;5047543;28;20033;-56
2023/03/13 11:37:10;;;;;;;3.08;2.30;;;;;;;2.96;46.62;99363.69;5046500;28;20042;-53
2023/03/13 11:39:59;;;;;;;3.67;1.98;;;;;;;3.03;46.27;99366.84;5043039;28;20037;-56
2023/03/13 11:42:46;;;;;;;6.18;2.38;;;;;;;3.10;46.64;99367.34;5051265;28;20056;-55
2023/03/13 11:45:14;;;;;;;5.88;2.08;;;;;;;3.21;45.10;99375.53;5050778;28;20052;-57